sensor_id;sensor_type;location;lat;lon;timestamp;pressure;altitude;pressure_sealevel;temperature;humidity
6567;BME280;3317;43.994;22.878;2023-02-04T00:01:53;100726.41;;;7.45;62.40
6567;BME280;3317;43.994;22.878;2023-02-04T00:04:20;100716.72;;;7.42;62.77
6567;BME280;3317;43.994;22.878;2023-02-04T00:06:47;100714.53;;;7.36;63.25
6567;BME280;3317;43.994;22.878;2023-02-04T00:09:14;100716.72;;;7.42;63.02
6567;BME280;3317;43.994;22.878;2023-02-04T00:11:41;100709.03;;;7.38;63.14
6567;BME280;3317;43.994;22.878;2023-02-04T00:14:09;100714.16;;;7.41;63.10
6567;BME280;3317;43.994;22.878;2023-02-04T00:16:36;100704.22;;;7.41;63.38
6567;BME280;3317;43.994;22.878;2023-02-04T00:19:05;100700.34;;;7.34;63.94
6567;BME280;3317;43.994;22.878;2023-02-04T00:21:31;100692.72;;;7.39;63.81
6567;BME280;3317;43.994;22.878;2023-02-04T00:23:59;100683.47;;;7.32;63.70
6567;BME280;3317;43.994;22.878;2023-02-04T00:26:26;100687.13;;;7.31;63.96
6567;BME280;3317;43.994;22.878;2023-02-04T00:28:53;100676.63;;;7.28;64.45
6567;BME280;3317;43.994;22.878;2023-02-04T00:31:20;100686.44;;;7.29;64.05
6567;BME280;3317;43.994;22.878;2023-02-04T00:33:46;100681.44;;;7.24;64.26
6567;BME280;3317;43.994;22.878;2023-02-04T00:36:15;100675.66;;;7.29;64.46
6567;BME280;3317;43.994;22.878;2023-02-04T00:38:42;100670.78;;;7.23;64.64
6567;BME280;3317;43.994;22.878;2023-02-04T00:41:09;100670.53;;;7.26;64.49
6567;BME280;3317;43.994;22.878;2023-02-04T00:43:36;100674.94;;;7.27;64.32
6567;BME280;3317;43.994;22.878;2023-02-04T00:46:03;100658.16;;;7.23;64.69
6567;BME280;3317;43.994;22.878;2023-02-04T00:48:30;100635.69;;;7.13;64.73
6567;BME280;3317;43.994;22.878;2023-02-04T00:50:57;100651.47;;;7.17;64.33
6567;BME280;3317;43.994;22.878;2023-02-04T00:53:25;100638.81;;;7.18;64.75
6567;BME280;3317;43.994;22.878;2023-02-04T00:55:52;100639.69;;;7.18;64.50
6567;BME280;3317;43.994;22.878;2023-02-04T00:58:19;100634.44;;;7.17;64.42
6567;BME280;3317;43.994;22.878;2023-02-04T01:00:46;100616.56;;;7.16;64.17
6567;BME280;3317;43.994;22.878;2023-02-04T01:03:13;100620.38;;;7.13;64.25
6567;BME280;3317;43.994;22.878;2023-02-04T01:05:40;100613.53;;;7.09;64.42
6567;BME280;3317;43.994;22.878;2023-02-04T01:08:07;100614.44;;;7.19;64.29
6567;BME280;3317;43.994;22.878;2023-02-04T01:10:35;100605.91;;;7.14;64.09
6567;BME280;3317;43.994;22.878;2023-02-04T01:13:02;100604.22;;;7.13;64.03
6567;BME280;3317;43.994;22.878;2023-02-04T01:15:29;100601.94;;;7.09;64.24
6567;BME280;3317;43.994;22.878;2023-02-04T01:17:56;100607.31;;;7.09;64.28
6567;BME280;3317;43.994;22.878;2023-02-04T01:20:23;100597.06;;;7.02;64.60
6567;BME280;3317;43.994;22.878;2023-02-04T01:22:50;100597.66;;;7.06;64.36
6567;BME280;3317;43.994;22.878;2023-02-04T01:25:17;100592.53;;;7.03;64.34
6567;BME280;3317;43.994;22.878;2023-02-04T01:27:45;100578.34;;;7.01;64.67
6567;BME280;3317;43.994;22.878;2023-02-04T01:30:14;100571.50;;;6.97;64.84
6567;BME280;3317;43.994;22.878;2023-02-04T01:32:41;100567.56;;;7.01;64.38
6567;BME280;3317;43.994;22.878;2023-02-04T01:35:08;100565.13;;;6.98;64.40
6567;BME280;3317;43.994;22.878;2023-02-04T01:37:35;100578.34;;;7.01;64.49
6567;BME280;3317;43.994;22.878;2023-02-04T01:40:02;100578.91;;;7.04;64.20
6567;BME280;3317;43.994;22.878;2023-02-04T01:42:29;100581.75;;;7.03;64.23
6567;BME280;3317;43.994;22.878;2023-02-04T01:44:57;100573.66;;;7.03;64.17
6567;BME280;3317;43.994;22.878;2023-02-04T01:47:24;100580.88;;;7.02;64.02
6567;BME280;3317;43.994;22.878;2023-02-04T01:49:52;100572.22;;;6.99;64.43
6567;BME280;3317;43.994;22.878;2023-02-04T01:52:21;100554.91;;;6.92;64.10
6567;BME280;3317;43.994;22.878;2023-02-04T01:54:48;100575.22;;;7.05;64.09
6567;BME280;3317;43.994;22.878;2023-02-04T01:57:16;100555.34;;;6.97;64.28
6567;BME280;3317;43.994;22.878;2023-02-04T01:59:44;100558.50;;;7.02;64.48
6567;BME280;3317;43.994;22.878;2023-02-04T02:02:43;100564.88;;;7.01;64.53
6567;BME280;3317;43.994;22.878;2023-02-04T02:05:13;100558.50;;;7.02;64.23
6567;BME280;3317;43.994;22.878;2023-02-04T02:07:41;100557.47;;;6.93;64.63
6567;BME280;3317;43.994;22.878;2023-02-04T02:10:10;100565.13;;;6.98;64.50
6567;BME280;3317;43.994;22.878;2023-02-04T02:12:38;100565.59;;;7.03;64.47
6567;BME280;3317;43.994;22.878;2023-02-04T02:15:06;100551.41;;;7.01;64.64
6567;BME280;3317;43.994;22.878;2023-02-04T02:17:34;100544.63;;;6.85;65.15
6567;BME280;3317;43.994;22.878;2023-02-04T02:20:05;100554.91;;;6.92;65.37
6567;BME280;3317;43.994;22.878;2023-02-04T02:22:36;100572.75;;;6.93;65.46
6567;BME280;3317;43.994;22.878;2023-02-04T02:25:12;100565.66;;;6.92;65.71
6567;BME280;3317;43.994;22.878;2023-02-04T02:27:39;100577.44;;;6.90;65.54
6567;BME280;3317;43.994;22.878;2023-02-04T02:30:09;100493.53;;;6.43;65.80
6567;BME280;3317;43.994;22.878;2023-02-04T02:32:37;100576.44;;;6.92;65.69
6567;BME280;3317;43.994;22.878;2023-02-04T02:35:05;100574.53;;;6.82;65.65
6567;BME280;3317;43.994;22.878;2023-02-04T02:37:32;100581.13;;;6.89;66.18
6567;BME280;3317;43.994;22.878;2023-02-04T02:39:59;100562.34;;;6.78;66.20
6567;BME280;3317;43.994;22.878;2023-02-04T02:42:29;100565.47;;;6.83;66.66
6567;BME280;3317;43.994;22.878;2023-02-04T02:44:56;100571.72;;;6.84;66.92
6567;BME280;3317;43.994;22.878;2023-02-04T02:47:24;100562.94;;;6.82;67.19
6567;BME280;3317;43.994;22.878;2023-02-04T02:49:53;100563.78;;;6.82;67.03
6567;BME280;3317;43.994;22.878;2023-02-04T02:52:20;100560.09;;;6.83;67.51
6567;BME280;3317;43.994;22.878;2023-02-04T02:54:48;100561.22;;;6.81;67.98
6567;BME280;3317;43.994;22.878;2023-02-04T02:57:18;100554.97;;;6.80;68.05
6567;BME280;3317;43.994;22.878;2023-02-04T02:59:48;100558.66;;;6.79;68.07
6567;BME280;3317;43.994;22.878;2023-02-04T03:02:17;100555.25;;;6.77;68.18
6567;BME280;3317;43.994;22.878;2023-02-04T03:04:49;100549.59;;;6.80;68.32
6567;BME280;3317;43.994;22.878;2023-02-04T03:07:18;100554.53;;;6.75;68.54
6567;BME280;3317;43.994;22.878;2023-02-04T03:09:45;100538.81;;;6.80;68.15
6567;BME280;3317;43.994;22.878;2023-02-04T03:12:13;100545.59;;;6.74;68.89
6567;BME280;3317;43.994;22.878;2023-02-04T03:14:40;100543.88;;;6.73;68.75
6567;BME280;3317;43.994;22.878;2023-02-04T03:17:09;100534.22;;;6.71;69.09
6567;BME280;3317;43.994;22.878;2023-02-04T03:19:37;100528.00;;;6.70;68.99
6567;BME280;3317;43.994;22.878;2023-02-04T03:22:06;100519.78;;;6.72;68.77
6567;BME280;3317;43.994;22.878;2023-02-04T03:24:34;100530.28;;;6.75;68.75
6567;BME280;3317;43.994;22.878;2023-02-04T03:27:01;100519.66;;;6.73;68.84
6567;BME280;3317;43.994;22.878;2023-02-04T03:29:29;100518.97;;;6.81;68.49
6567;BME280;3317;43.994;22.878;2023-02-04T03:31:56;100523.94;;;6.76;69.09
6567;BME280;3317;43.994;22.878;2023-02-04T03:34:25;100528.84;;;6.71;69.18
6567;BME280;3317;43.994;22.878;2023-02-04T03:36:52;100529.81;;;6.70;69.46
6567;BME280;3317;43.994;22.878;2023-02-04T03:39:19;100532.00;;;6.76;68.76
6567;BME280;3317;43.994;22.878;2023-02-04T03:41:46;100526.63;;;6.76;68.93
6567;BME280;3317;43.994;22.878;2023-02-04T03:44:13;100524.75;;;6.76;68.37
6567;BME280;3317;43.994;22.878;2023-02-04T03:46:40;100521.34;;;6.74;69.07
6567;BME280;3317;43.994;22.878;2023-02-04T03:49:07;100513.88;;;6.78;68.38
6567;BME280;3317;43.994;22.878;2023-02-04T03:51:35;100518.78;;;6.73;68.31
6567;BME280;3317;43.994;22.878;2023-02-04T03:54:02;100523.44;;;6.71;68.49
6567;BME280;3317;43.994;22.878;2023-02-04T03:56:29;100534.50;;;6.68;68.63
6567;BME280;3317;43.994;22.878;2023-02-04T03:58:56;100535.38;;;6.68;68.27
6567;BME280;3317;43.994;22.878;2023-02-04T04:01:23;100531.94;;;6.66;68.02
6567;BME280;3317;43.994;22.878;2023-02-04T04:03:50;100528.41;;;6.66;67.95
6567;BME280;3317;43.994;22.878;2023-02-04T04:06:16;100520.84;;;6.59;68.08
6567;BME280;3317;43.994;22.878;2023-02-04T04:08:45;100534.31;;;6.59;68.10
6567;BME280;3317;43.994;22.878;2023-02-04T04:11:12;100532.75;;;6.57;67.86
6567;BME280;3317;43.994;22.878;2023-02-04T04:13:39;100532.88;;;6.55;67.90
6567;BME280;3317;43.994;22.878;2023-02-04T04:16:06;100531.56;;;6.50;67.95
6567;BME280;3317;43.994;22.878;2023-02-04T04:18:33;100497.19;;;6.32;68.07
6567;BME280;3317;43.994;22.878;2023-02-04T04:21:00;100515.34;;;6.40;68.03
6567;BME280;3317;43.994;22.878;2023-02-04T04:23:28;100513.91;;;6.36;68.47
6567;BME280;3317;43.994;22.878;2023-02-04T04:25:56;100515.88;;;6.33;68.40
6567;BME280;3317;43.994;22.878;2023-02-04T04:28:23;100505.38;;;6.30;68.94
6567;BME280;3317;43.994;22.878;2023-02-04T04:30:52;100505.63;;;6.27;69.06
6567;BME280;3317;43.994;22.878;2023-02-04T04:33:19;100504.44;;;6.20;68.77
6567;BME280;3317;43.994;22.878;2023-02-04T04:35:46;100525.00;;;6.21;68.91
6567;BME280;3317;43.994;22.878;2023-02-04T04:38:13;100515.75;;;6.14;69.01
6567;BME280;3317;43.994;22.878;2023-02-04T04:40:40;100526.84;;;6.20;69.11
6567;BME280;3317;43.994;22.878;2023-02-04T04:43:08;100533.81;;;6.23;68.83
6567;BME280;3317;43.994;22.878;2023-02-04T04:45:35;100543.59;;;6.24;68.41
6567;BME280;3317;43.994;22.878;2023-02-04T04:48:02;100542.22;;;6.30;68.14
6567;BME280;3317;43.994;22.878;2023-02-04T04:50:29;100547.31;;;6.33;67.62
6567;BME280;3317;43.994;22.878;2023-02-04T04:52:56;100550.63;;;6.37;67.57
6567;BME280;3317;43.994;22.878;2023-02-04T04:55:24;100537.66;;;6.30;67.05
6567;BME280;3317;43.994;22.878;2023-02-04T04:57:50;100560.47;;;6.47;66.40
6567;BME280;3317;43.994;22.878;2023-02-04T05:00:20;100561.00;;;6.41;66.81
6567;BME280;3317;43.994;22.878;2023-02-04T05:02:47;100588.09;;;6.50;66.76
6567;BME280;3317;43.994;22.878;2023-02-04T05:05:14;100587.97;;;6.51;66.78
6567;BME280;3317;43.994;22.878;2023-02-04T05:07:41;100583.19;;;6.55;66.41
6567;BME280;3317;43.994;22.878;2023-02-04T05:10:09;100592.59;;;6.60;66.38
6567;BME280;3317;43.994;22.878;2023-02-04T05:12:35;100587.91;;;6.62;65.91
6567;BME280;3317;43.994;22.878;2023-02-04T05:15:03;100579.56;;;6.66;65.69
6567;BME280;3317;43.994;22.878;2023-02-04T05:17:32;100584.09;;;6.65;65.79
6567;BME280;3317;43.994;22.878;2023-02-04T05:19:59;100572.66;;;6.73;65.51
6567;BME280;3317;43.994;22.878;2023-02-04T05:22:25;100575.34;;;6.73;65.63
6567;BME280;3317;43.994;22.878;2023-02-04T05:24:53;100522.50;;;6.51;65.53
6567;BME280;3317;43.994;22.878;2023-02-04T05:27:19;100564.31;;;6.76;65.65
6567;BME280;3317;43.994;22.878;2023-02-04T05:29:46;100569.72;;;6.76;65.60
6567;BME280;3317;43.994;22.878;2023-02-04T05:32:13;100556.38;;;6.74;65.32
6567;BME280;3317;43.994;22.878;2023-02-04T05:34:42;100556.38;;;6.74;65.27
6567;BME280;3317;43.994;22.878;2023-02-04T05:37:09;100549.00;;;6.76;65.29
6567;BME280;3317;43.994;22.878;2023-02-04T05:39:35;100557.78;;;6.79;65.04
6567;BME280;3317;43.994;22.878;2023-02-04T05:42:02;100549.72;;;6.79;64.79
6567;BME280;3317;43.994;22.878;2023-02-04T05:44:29;100548.72;;;6.80;64.48
6567;BME280;3317;43.994;22.878;2023-02-04T05:46:56;100567.00;;;6.76;65.08
6567;BME280;3317;43.994;22.878;2023-02-04T05:49:23;100556.97;;;6.78;64.93
6567;BME280;3317;43.994;22.878;2023-02-04T05:51:51;100550.84;;;6.76;64.43
6567;BME280;3317;43.994;22.878;2023-02-04T05:54:18;100568.56;;;6.79;64.37
6567;BME280;3317;43.994;22.878;2023-02-04T05:56:45;100579.09;;;6.82;63.97
6567;BME280;3317;43.994;22.878;2023-02-04T05:59:12;100580.94;;;6.81;63.93
6567;BME280;3317;43.994;22.878;2023-02-04T06:01:39;100582.03;;;6.79;63.89
6567;BME280;3317;43.994;22.878;2023-02-04T06:04:06;100580.47;;;6.76;63.99
6567;BME280;3317;43.994;22.878;2023-02-04T06:06:33;100586.59;;;6.78;63.66
6567;BME280;3317;43.994;22.878;2023-02-04T06:09:02;100580.47;;;6.76;63.75
6567;BME280;3317;43.994;22.878;2023-02-04T06:11:29;100584.00;;;6.76;63.82
6567;BME280;3317;43.994;22.878;2023-02-04T06:13:56;100575.34;;;6.73;63.63
6567;BME280;3317;43.994;22.878;2023-02-04T06:16:23;100582.47;;;6.74;63.38
6567;BME280;3317;43.994;22.878;2023-02-04T06:18:50;100593.47;;;6.71;63.48
6567;BME280;3317;43.994;22.878;2023-02-04T06:21:17;100597.31;;;6.68;63.60
6567;BME280;3317;43.994;22.878;2023-02-04T06:23:44;100601.38;;;6.62;63.38
6567;BME280;3317;43.994;22.878;2023-02-04T06:26:12;100611.16;;;6.64;63.48
6567;BME280;3317;43.994;22.878;2023-02-04T06:28:39;100611.88;;;6.66;63.27
6567;BME280;3317;43.994;22.878;2023-02-04T06:31:06;100602.69;;;6.68;63.61
6567;BME280;3317;43.994;22.878;2023-02-04T06:33:34;100622.09;;;6.72;63.30
6567;BME280;3317;43.994;22.878;2023-02-04T06:36:01;100606.81;;;6.72;63.27
6567;BME280;3317;43.994;22.878;2023-02-04T06:38:28;100609.97;;;6.78;63.56
6567;BME280;3317;43.994;22.878;2023-02-04T06:40:55;100607.97;;;6.80;63.71
6567;BME280;3317;43.994;22.878;2023-02-04T06:43:24;100606.88;;;6.82;63.81
6567;BME280;3317;43.994;22.878;2023-02-04T06:45:52;100608.06;;;6.89;64.02
6567;BME280;3317;43.994;22.878;2023-02-04T06:48:19;100615.75;;;6.94;63.42
6567;BME280;3317;43.994;22.878;2023-02-04T06:50:46;100623.16;;;7.02;63.37
6567;BME280;3317;43.994;22.878;2023-02-04T06:53:13;100618.09;;;7.09;63.17
6567;BME280;3317;43.994;22.878;2023-02-04T06:55:40;100615.44;;;7.18;63.09
6567;BME280;3317;43.994;22.878;2023-02-04T06:58:06;100622.00;;;7.26;62.88
6567;BME280;3317;43.994;22.878;2023-02-04T07:00:35;100623.44;;;7.30;63.02
6567;BME280;3317;43.994;22.878;2023-02-04T07:03:02;100629.00;;;7.38;62.79
6567;BME280;3317;43.994;22.878;2023-02-04T07:05:31;100629.31;;;7.45;62.72
6567;BME280;3317;43.994;22.878;2023-02-04T07:07:58;100622.50;;;7.51;62.43
6567;BME280;3317;43.994;22.878;2023-02-04T07:10:26;100625.38;;;7.59;62.69
6567;BME280;3317;43.994;22.878;2023-02-04T07:12:53;100618.59;;;7.65;62.30
6567;BME280;3317;43.994;22.878;2023-02-04T07:15:20;100614.59;;;7.69;62.04
6567;BME280;3317;43.994;22.878;2023-02-04T07:17:48;100607.56;;;7.78;62.19
6567;BME280;3317;43.994;22.878;2023-02-04T07:20:16;100605.69;;;7.78;61.87
6567;BME280;3317;43.994;22.878;2023-02-04T07:22:43;100602.72;;;7.81;61.70
6567;BME280;3317;43.994;22.878;2023-02-04T07:25:10;100609.84;;;7.92;61.83
6567;BME280;3317;43.994;22.878;2023-02-04T07:27:39;100614.97;;;7.95;61.95
6567;BME280;3317;43.994;22.878;2023-02-04T07:30:08;100607.28;;;8.00;61.96
6567;BME280;3317;43.994;22.878;2023-02-04T07:32:35;100605.88;;;8.06;61.52
6567;BME280;3317;43.994;22.878;2023-02-04T07:35:04;100598.50;;;8.18;61.25
6567;BME280;3317;43.994;22.878;2023-02-04T07:37:31;100593.09;;;8.28;61.21
6567;BME280;3317;43.994;22.878;2023-02-04T07:39:58;100589.13;;;8.42;64.13
6567;BME280;3317;43.994;22.878;2023-02-04T07:42:25;100588.28;;;8.51;62.51
6567;BME280;3317;43.994;22.878;2023-02-04T07:44:52;100541.69;;;8.29;61.82
6567;BME280;3317;43.994;22.878;2023-02-04T07:47:19;100577.88;;;8.66;61.68
6567;BME280;3317;43.994;22.878;2023-02-04T07:49:46;100572.06;;;8.71;61.04
6567;BME280;3317;43.994;22.878;2023-02-04T07:52:14;100576.84;;;8.77;60.36
6567;BME280;3317;43.994;22.878;2023-02-04T07:54:41;100576.28;;;8.83;60.54
6567;BME280;3317;43.994;22.878;2023-02-04T07:57:08;100581.38;;;8.86;60.37
6567;BME280;3317;43.994;22.878;2023-02-04T07:59:35;100578.38;;;8.90;60.06
6567;BME280;3317;43.994;22.878;2023-02-04T08:02:02;100577.38;;;8.91;59.85
6567;BME280;3317;43.994;22.878;2023-02-04T08:04:29;100578.09;;;8.93;59.59
6567;BME280;3317;43.994;22.878;2023-02-04T08:06:56;100582.91;;;8.99;59.63
6567;BME280;3317;43.994;22.878;2023-02-04T08:09:24;100541.59;;;8.79;59.58
6567;BME280;3317;43.994;22.878;2023-02-04T08:11:51;100575.38;;;9.02;59.57
6567;BME280;3317;43.994;22.878;2023-02-04T08:14:18;100578.78;;;9.05;59.36
6567;BME280;3317;43.994;22.878;2023-02-04T08:16:45;100573.06;;;9.08;59.65
6567;BME280;3317;43.994;22.878;2023-02-04T08:19:13;100566.25;;;9.04;59.42
6567;BME280;3317;43.994;22.878;2023-02-04T08:21:43;100564.13;;;9.07;59.45
6567;BME280;3317;43.994;22.878;2023-02-04T08:24:10;100562.00;;;9.01;59.48
6567;BME280;3317;43.994;22.878;2023-02-04T08:26:38;100562.25;;;9.08;59.61
6567;BME280;3317;43.994;22.878;2023-02-04T08:29:06;100560.00;;;9.03;59.44
6567;BME280;3317;43.994;22.878;2023-02-04T08:31:33;100561.25;;;9.09;60.07
6567;BME280;3317;43.994;22.878;2023-02-04T08:34:00;100565.69;;;9.00;60.16
6567;BME280;3317;43.994;22.878;2023-02-04T08:36:29;100558.16;;;9.04;60.06
6567;BME280;3317;43.994;22.878;2023-02-04T08:38:56;100559.69;;;9.06;60.67
6567;BME280;3317;43.994;22.878;2023-02-04T08:41:23;100566.25;;;9.04;60.11
6567;BME280;3317;43.994;22.878;2023-02-04T08:43:51;100566.56;;;9.00;60.03
6567;BME280;3317;43.994;22.878;2023-02-04T08:46:20;100569.00;;;8.94;60.02
6567;BME280;3317;43.994;22.878;2023-02-04T08:48:47;100577.13;;;8.94;60.29
6567;BME280;3317;43.994;22.878;2023-02-04T08:51:14;100591.31;;;8.96;59.83
6567;BME280;3317;43.994;22.878;2023-02-04T08:53:41;100575.22;;;9.04;59.88
6567;BME280;3317;43.994;22.878;2023-02-04T08:56:08;100581.59;;;9.13;61.60
6567;BME280;3317;43.994;22.878;2023-02-04T08:58:40;100578.16;;;9.11;60.11
6567;BME280;3317;43.994;22.878;2023-02-04T09:01:08;100588.72;;;9.14;60.58
6567;BME280;3317;43.994;22.878;2023-02-04T09:03:35;100583.84;;;9.18;60.13
6567;BME280;3317;43.994;22.878;2023-02-04T09:06:03;100593.50;;;9.20;59.70
6567;BME280;3317;43.994;22.878;2023-02-04T09:08:30;100587.66;;;9.25;59.61
6567;BME280;3317;43.994;22.878;2023-02-04T09:10:57;100590.94;;;9.19;59.15
6567;BME280;3317;43.994;22.878;2023-02-04T09:13:24;100596.34;;;9.28;59.14
6567;BME280;3317;43.994;22.878;2023-02-04T09:15:51;100591.06;;;9.27;58.76
6567;BME280;3317;43.994;22.878;2023-02-04T09:18:20;100591.63;;;9.30;59.66
6567;BME280;3317;43.994;22.878;2023-02-04T09:20:49;100598.44;;;9.35;59.21
6567;BME280;3317;43.994;22.878;2023-02-04T09:23:16;100608.50;;;9.42;59.15
6567;BME280;3317;43.994;22.878;2023-02-04T09:25:44;100611.06;;;9.44;58.36
6567;BME280;3317;43.994;22.878;2023-02-04T09:28:12;100596.28;;;9.38;58.54
6567;BME280;3317;43.994;22.878;2023-02-04T09:30:43;100608.50;;;9.42;58.06
6567;BME280;3317;43.994;22.878;2023-02-04T09:33:12;100610.63;;;9.49;58.20
6567;BME280;3317;43.994;22.878;2023-02-04T09:35:42;100599.78;;;9.49;58.85
6567;BME280;3317;43.994;22.878;2023-02-04T09:38:09;100605.22;;;9.49;58.27
6567;BME280;3317;43.994;22.878;2023-02-04T09:40:40;100598.94;;;9.48;58.55
6567;BME280;3317;43.994;22.878;2023-02-04T09:43:11;100594.22;;;9.50;58.83
6567;BME280;3317;43.994;22.878;2023-02-04T09:45:40;100591.50;;;9.50;58.80
6567;BME280;3317;43.994;22.878;2023-02-04T09:48:10;100589.81;;;9.49;58.63
6567;BME280;3317;43.994;22.878;2023-02-04T09:50:39;100594.38;;;9.49;58.87
6567;BME280;3317;43.994;22.878;2023-02-04T09:53:12;100518.44;;;9.04;58.56
6567;BME280;3317;43.994;22.878;2023-02-04T09:55:40;100585.56;;;9.47;59.28
6567;BME280;3317;43.994;22.878;2023-02-04T09:58:12;100586.97;;;9.51;58.96
6567;BME280;3317;43.994;22.878;2023-02-04T10:00:41;100579.00;;;9.49;59.42
6567;BME280;3317;43.994;22.878;2023-02-04T10:03:13;100581.41;;;9.52;59.28
6567;BME280;3317;43.994;22.878;2023-02-04T10:05:43;100566.63;;;9.47;58.34
6567;BME280;3317;43.994;22.878;2023-02-04T10:08:13;100581.88;;;9.48;58.56
6567;BME280;3317;43.994;22.878;2023-02-04T10:10:42;100580.56;;;9.52;58.58
6567;BME280;3317;43.994;22.878;2023-02-04T10:13:15;100578.53;;;9.54;58.77
6567;BME280;3317;43.994;22.878;2023-02-04T10:15:43;100574.00;;;9.54;58.58
6567;BME280;3317;43.994;22.878;2023-02-04T10:18:15;100562.63;;;9.51;58.13
6567;BME280;3317;43.994;22.878;2023-02-04T10:20:43;100559.78;;;9.52;58.50
6567;BME280;3317;43.994;22.878;2023-02-04T10:23:11;100569.72;;;9.52;58.67
6567;BME280;3317;43.994;22.878;2023-02-04T10:25:38;100568.34;;;9.48;58.66
6567;BME280;3317;43.994;22.878;2023-02-04T10:28:05;100569.19;;;9.48;58.39
6567;BME280;3317;43.994;22.878;2023-02-04T10:30:38;100572.06;;;9.47;58.90
6567;BME280;3317;43.994;22.878;2023-02-04T10:33:13;100569.88;;;9.50;58.72
6567;BME280;3317;43.994;22.878;2023-02-04T10:35:45;100554.81;;;9.48;58.40
6567;BME280;3317;43.994;22.878;2023-02-04T10:38:13;100581.09;;;9.55;58.44
6567;BME280;3317;43.994;22.878;2023-02-04T10:40:41;100562.06;;;9.47;58.65
6567;BME280;3317;43.994;22.878;2023-02-04T10:43:08;100562.47;;;9.52;59.23
6567;BME280;3317;43.994;22.878;2023-02-04T10:45:36;100572.53;;;9.60;59.51
6567;BME280;3317;43.994;22.878;2023-02-04T10:48:04;100576.78;;;9.63;59.63
6567;BME280;3317;43.994;22.878;2023-02-04T10:50:32;100553.81;;;9.49;59.85
6567;BME280;3317;43.994;22.878;2023-02-04T10:52:59;100561.41;;;9.63;60.62
6567;BME280;3317;43.994;22.878;2023-02-04T10:55:42;100574.47;;;9.68;61.47
6567;BME280;3317;43.994;22.878;2023-02-04T10:58:11;100567.06;;;9.70;60.96
6567;BME280;3317;43.994;22.878;2023-02-04T11:00:40;100563.22;;;9.72;60.65
6567;BME280;3317;43.994;22.878;2023-02-04T11:03:12;100572.34;;;9.71;60.42
6567;BME280;3317;43.994;22.878;2023-02-04T11:05:41;100568.38;;;9.66;60.31
6567;BME280;3317;43.994;22.878;2023-02-04T11:08:19;100580.72;;;9.68;59.97
6567;BME280;3317;43.994;22.878;2023-02-04T11:10:55;100575.63;;;9.65;60.19
6567;BME280;3317;43.994;22.878;2023-02-04T11:13:25;100578.78;;;9.61;60.61
6567;BME280;3317;43.994;22.878;2023-02-04T11:16:09;100583.94;;;9.54;61.06
6567;BME280;3317;43.994;22.878;2023-02-04T11:18:45;100571.88;;;9.48;61.60
6567;BME280;3317;43.994;22.878;2023-02-04T11:21:20;100503.53;;;9.00;61.65
6567;BME280;3317;43.994;22.878;2023-02-04T11:23:48;100515.84;;;9.12;62.30
6567;BME280;3317;43.994;22.878;2023-02-04T11:26:18;100556.84;;;9.36;62.98
6567;BME280;3317;43.994;22.878;2023-02-04T11:29:10;100556.78;;;9.27;63.18
6567;BME280;3317;43.994;22.878;2023-02-04T11:31:57;100538.59;;;9.20;64.00
6567;BME280;3317;43.994;22.878;2023-02-04T11:34:27;100553.06;;;9.28;64.36
6567;BME280;3317;43.994;22.878;2023-02-04T11:37:02;100547.66;;;9.28;64.67
6567;BME280;3317;43.994;22.878;2023-02-04T11:39:35;100551.13;;;9.21;64.89
6567;BME280;3317;43.994;22.878;2023-02-04T11:42:04;100523.84;;;9.04;64.91
6567;BME280;3317;43.994;22.878;2023-02-04T11:44:32;100548.84;;;9.16;65.45
6567;BME280;3317;43.994;22.878;2023-02-04T11:47:01;100537.88;;;9.18;65.40
6567;BME280;3317;43.994;22.878;2023-02-04T11:49:34;100542.59;;;9.15;65.39
6567;BME280;3317;43.994;22.878;2023-02-04T11:52:04;100545.97;;;9.18;64.69
6567;BME280;3317;43.994;22.878;2023-02-04T11:54:33;100531.63;;;9.17;64.11
6567;BME280;3317;43.994;22.878;2023-02-04T11:57:00;100543.59;;;9.14;64.17
6567;BME280;3317;43.994;22.878;2023-02-04T11:59:29;100549.69;;;9.16;64.06
6567;BME280;3317;43.994;22.878;2023-02-04T12:02:13;100534.47;;;9.15;64.58
6567;BME280;3317;43.994;22.878;2023-02-04T12:04:50;100544.69;;;9.22;63.78
6567;BME280;3317;43.994;22.878;2023-02-04T12:07:22;100532.63;;;9.16;63.51
6567;BME280;3317;43.994;22.878;2023-02-04T12:09:50;100535.09;;;9.09;62.64
6567;BME280;3317;43.994;22.878;2023-02-04T12:12:28;100535.09;;;9.09;62.10
6567;BME280;3317;43.994;22.878;2023-02-04T12:15:00;100539.78;;;9.07;61.94
6567;BME280;3317;43.994;22.878;2023-02-04T12:17:27;100533.97;;;9.02;61.70
6567;BME280;3317;43.994;22.878;2023-02-04T12:19:54;100535.97;;;9.00;62.05
6567;BME280;3317;43.994;22.878;2023-02-04T12:22:21;100529.56;;;9.01;61.98
6567;BME280;3317;43.994;22.878;2023-02-04T12:24:48;100536.97;;;8.99;62.10
6567;BME280;3317;43.994;22.878;2023-02-04T12:27:17;100530.44;;;8.92;62.02
6567;BME280;3317;43.994;22.878;2023-02-04T12:29:44;100534.72;;;8.94;61.74
6567;BME280;3317;43.994;22.878;2023-02-04T12:32:13;100537.00;;;8.89;62.32
6567;BME280;3317;43.994;22.878;2023-02-04T12:34:40;100546.56;;;8.83;61.64
6567;BME280;3317;43.994;22.878;2023-02-04T12:37:07;100539.03;;;8.77;62.12
6567;BME280;3317;43.994;22.878;2023-02-04T12:39:34;100545.56;;;8.84;61.91
6567;BME280;3317;43.994;22.878;2023-02-04T12:42:01;100543.69;;;8.85;62.41
6567;BME280;3317;43.994;22.878;2023-02-04T12:44:29;100539.03;;;8.77;62.42
6567;BME280;3317;43.994;22.878;2023-02-04T12:46:56;100542.03;;;8.74;62.56
6567;BME280;3317;43.994;22.878;2023-02-04T12:49:24;100544.44;;;8.77;62.72
6567;BME280;3317;43.994;22.878;2023-02-04T12:51:51;100543.72;;;8.75;62.81
6567;BME280;3317;43.994;22.878;2023-02-04T12:54:18;100544.72;;;8.74;63.27
6567;BME280;3317;43.994;22.878;2023-02-04T12:56:45;100523.47;;;8.61;63.61
6567;BME280;3317;43.994;22.878;2023-02-04T12:59:13;100550.44;;;8.71;64.17
6567;BME280;3317;43.994;22.878;2023-02-04T13:01:40;100561.94;;;8.73;64.24
6567;BME280;3317;43.994;22.878;2023-02-04T13:04:08;100550.13;;;8.74;66.01
6567;BME280;3317;43.994;22.878;2023-02-04T13:06:36;100559.63;;;8.78;66.11
6567;BME280;3317;43.994;22.878;2023-02-04T13:09:03;100555.84;;;8.71;66.34
6567;BME280;3317;43.994;22.878;2023-02-04T13:11:30;100555.94;;;8.79;66.16
6567;BME280;3317;43.994;22.878;2023-02-04T13:13:57;100562.66;;;8.75;65.74
6567;BME280;3317;43.994;22.878;2023-02-04T13:16:24;100556.53;;;8.73;65.38